Time;durP1;ratioP1;P1;durP2;ratioP2;P2;SDS_P1;SDS_P2;PMS_P1;PMS_P2;Temp;Humidity;BMP_temperature;BMP_pressure;BME280_temperature;BME280_humidity;BME280_pressure;Samples;Min_cycle;Max_cycle;Signal;HPM_P1;HPM_P2
2024/01/08 00:00:29;;;;;;;0.60;0.60;;;;;;;;;;4968530;28;20106;-84
2024/01/08 00:02:55;;;;;;;0.50;0.50;;;;;;;;;;4967334;28;20043;-84
2024/01/08 00:05:21;;;;;;;0.60;0.60;;;;;;;;;;4982684;28;20042;-84
2024/01/08 00:07:51;;;;;;;0.50;0.50;;;;;;;;;;4982061;28;20146;-85
2024/01/08 00:10:17;;;;;;;0.60;0.60;;;;;;;;;;4999808;28;20058;-85
2024/01/08 00:12:44;;;;;;;0.70;0.70;;;;;;;;;;4998353;28;20125;-85
2024/01/08 00:15:10;;;;;;;0.60;0.60;;;;;;;;;;4978794;28;20045;-83
2024/01/08 00:17:36;;;;;;;0.50;0.50;;;;;;;;;;4981065;28;20124;-83
2024/01/08 00:20:03;;;;;;;0.50;0.50;;;;;;;;;;4963751;28;20043;-83
2024/01/08 00:22:29;;;;;;;0.60;0.60;;;;;;;;;;4963302;28;20045;-83
2024/01/08 00:25:24;;;;;;;0.60;0.60;;;;;;;;;;4966007;28;20049;-85
2024/01/08 00:27:50;;;;;;;0.50;0.50;;;;;;;;;;4974794;28;20691;-84
2024/01/08 00:30:18;;;;;;;0.60;0.60;;;;;;;;;;4976368;28;20302;-83
2024/01/08 00:32:45;;;;;;;0.60;0.60;;;;;;;;;;4965931;28;20042;-83
2024/01/08 00:35:11;;;;;;;0.70;0.70;;;;;;;;;;4989036;28;20071;-83
2024/01/08 00:37:38;;;;;;;0.60;0.60;;;;;;;;;;4992043;28;20054;-84
2024/01/08 00:40:05;;;;;;;0.60;0.60;;;;;;;;;;4975798;28;20046;-84
2024/01/08 00:42:31;;;;;;;0.60;0.60;;;;;;;;;;4992639;28;20494;-85
2024/01/08 00:44:57;;;;;;;0.60;0.60;;;;;;;;;;4982043;28;20065;-84
2024/01/08 00:47:23;;;;;;;0.70;0.70;;;;;;;;;;4979436;28;20031;-82
2024/01/08 00:49:50;;;;;;;0.50;0.50;;;;;;;;;;4979236;28;20078;-84
2024/01/08 00:52:16;;;;;;;0.60;0.60;;;;;;;;;;4982081;28;20497;-84
2024/01/08 00:54:42;;;;;;;0.60;0.60;;;;;;;;;;4980878;28;20049;-84
2024/01/08 00:57:08;;;;;;;0.50;0.50;;;;;;;;;;4982117;28;20462;-85
2024/01/08 00:59:34;;;;;;;0.60;0.60;;;;;;;;;;4978610;28;20074;-84
2024/01/08 01:02:00;;;;;;;0.70;0.70;;;;;;;;;;4975520;28;20046;-84
2024/01/08 01:04:26;;;;;;;0.70;0.70;;;;;;;;;;4966341;28;20131;-85
2024/01/08 01:06:52;;;;;;;0.60;0.60;;;;;;;;;;4980118;28;20074;-83
2024/01/08 01:09:18;;;;;;;0.60;0.60;;;;;;;;;;4968350;28;20100;-84
2024/01/08 01:11:44;;;;;;;0.60;0.60;;;;;;;;;;4999621;28;20131;-84
2024/01/08 01:14:10;;;;;;;0.50;0.50;;;;;;;;;;4998209;28;20042;-84
2024/01/08 01:16:36;;;;;;;0.60;0.60;;;;;;;;;;4981880;28;20382;-84
2024/01/08 01:19:02;;;;;;;0.60;0.60;;;;;;;;;;4998261;28;20046;-84
2024/01/08 01:21:28;;;;;;;0.60;0.60;;;;;;;;;;4982228;28;20460;-84
2024/01/08 01:23:55;;;;;;;0.52;0.52;;;;;;;;;;4982338;28;20452;-84
2024/01/08 01:26:22;;;;;;;0.60;0.60;;;;;;;;;;4999052;28;20481;-84
2024/01/08 01:28:48;;;;;;;0.60;0.60;;;;;;;;;;4982176;28;20457;-84
2024/01/08 01:31:14;;;;;;;0.60;0.60;;;;;;;;;;4982594;28;20042;-84
2024/01/08 01:33:40;;;;;;;0.60;0.60;;;;;;;;;;4998826;28;20042;-84
2024/01/08 01:36:07;;;;;;;0.60;0.60;;;;;;;;;;4982837;28;20042;-88
2024/01/08 01:38:33;;;;;;;0.63;0.63;;;;;;;;;;4969844;28;20125;-84
2024/01/08 01:40:59;;;;;;;0.60;0.60;;;;;;;;;;4978445;28;20045;-83
2024/01/08 01:43:28;;;;;;;0.60;0.60;;;;;;;;;;4987409;28;20559;-84
2024/01/08 01:45:55;;;;;;;0.60;0.60;;;;;;;;;;4975406;28;20050;-83
2024/01/08 01:48:24;;;;;;;0.98;0.98;;;;;;;;;;4962943;28;20074;-83
2024/01/08 01:50:51;;;;;;;1.35;1.30;;;;;;;;;;4961765;28;20043;-84
2024/01/08 01:53:17;;;;;;;1.00;1.00;;;;;;;;;;4978466;28;20049;-85
2024/01/08 01:55:43;;;;;;;0.60;0.60;;;;;;;;;;4962566;28;20046;-83
2024/01/08 01:58:11;;;;;;;0.60;0.60;;;;;;;;;;4962791;28;20049;-84
2024/01/08 02:00:37;;;;;;;0.70;0.70;;;;;;;;;;4962052;28;20046;-84
2024/01/08 02:03:03;;;;;;;0.65;0.65;;;;;;;;;;4976187;28;20673;-84
2024/01/08 02:05:29;;;;;;;0.60;0.60;;;;;;;;;;4994436;28;20046;-84
2024/01/08 02:07:56;;;;;;;0.60;0.60;;;;;;;;;;4977435;28;20441;-84
2024/01/08 02:10:22;;;;;;;0.60;0.60;;;;;;;;;;4976611;28;20494;-84
2024/01/08 02:12:49;;;;;;;0.50;0.50;;;;;;;;;;4976503;28;20047;-84
2024/01/08 02:15:15;;;;;;;0.60;0.60;;;;;;;;;;4993922;28;20039;-85
2024/01/08 02:17:41;;;;;;;0.60;0.60;;;;;;;;;;4977333;28;20497;-85
2024/01/08 02:20:07;;;;;;;0.60;0.60;;;;;;;;;;4977053;28;20043;-83
2024/01/08 02:22:37;;;;;;;0.60;0.60;;;;;;;;;;4977483;28;20051;-83
2024/01/08 02:25:03;;;;;;;0.50;0.50;;;;;;;;;;4978124;28;20042;-83
2024/01/08 02:27:29;;;;;;;0.70;0.70;;;;;;;;;;4976888;28;20034;-84
2024/01/08 02:29:55;;;;;;;0.63;0.63;;;;;;;;;;4986901;28;20042;-84
2024/01/08 02:32:21;;;;;;;0.60;0.60;;;;;;;;;;4979833;28;20038;-85
2024/01/08 02:34:47;;;;;;;0.60;0.60;;;;;;;;;;4997630;28;20074;-85
2024/01/08 02:37:13;;;;;;;0.52;0.52;;;;;;;;;;4979280;28;20042;-84
2024/01/08 02:39:39;;;;;;;0.60;0.60;;;;;;;;;;4979986;28;20045;-84
2024/01/08 02:42:05;;;;;;;0.60;0.60;;;;;;;;;;4980248;28;20494;-83
2024/01/08 02:44:31;;;;;;;0.60;0.60;;;;;;;;;;4979831;28;20038;-84
2024/01/08 02:46:57;;;;;;;0.60;0.60;;;;;;;;;;4996466;28;20074;-84
2024/01/08 02:49:26;;;;;;;0.50;0.50;;;;;;;;;;4980214;28;20042;-84
2024/01/08 02:51:52;;;;;;;0.60;0.60;;;;;;;;;;4990626;28;20053;-84
2024/01/08 02:54:18;;;;;;;0.70;0.70;;;;;;;;;;4976610;28;20043;-84
2024/01/08 02:56:44;;;;;;;0.60;0.60;;;;;;;;;;4960462;28;20050;-83
2024/01/08 02:59:10;;;;;;;0.50;0.50;;;;;;;;;;4959950;28;20075;-84
2024/01/08 03:01:37;;;;;;;0.55;0.55;;;;;;;;;;4976435;28;20039;-84
2024/01/08 03:04:03;;;;;;;0.60;0.60;;;;;;;;;;4960445;28;20050;-83
2024/01/08 03:06:29;;;;;;;0.60;0.60;;;;;;;;;;4976800;28;20054;-85
2024/01/08 03:08:55;;;;;;;0.50;0.50;;;;;;;;;;4976082;28;20494;-84
2024/01/08 03:11:22;;;;;;;0.60;0.60;;;;;;;;;;4960310;28;20043;-84
2024/01/08 03:13:48;;;;;;;0.50;0.50;;;;;;;;;;4960006;28;20045;-85
2024/01/08 03:16:14;;;;;;;0.60;0.60;;;;;;;;;;4965499;28;20473;-84
2024/01/08 03:18:40;;;;;;;0.60;0.60;;;;;;;;;;4979635;28;20516;-84
2024/01/08 03:21:06;;;;;;;0.60;0.60;;;;;;;;;;4976059;28;20039;-84
2024/01/08 03:23:32;;;;;;;0.60;0.60;;;;;;;;;;4962474;28;20523;-84
2024/01/08 03:25:58;;;;;;;0.60;0.60;;;;;;;;;;4996047;28;20071;-84
2024/01/08 03:28:24;;;;;;;0.65;0.65;;;;;;;;;;4979985;28;20042;-84
2024/01/08 03:30:50;;;;;;;0.60;0.60;;;;;;;;;;4981053;28;20129;-84
2024/01/08 03:33:16;;;;;;;0.50;0.50;;;;;;;;;;4980102;28;20042;-84
2024/01/08 03:35:43;;;;;;;0.60;0.60;;;;;;;;;;4979539;28;20050;-85
2024/01/08 03:38:09;;;;;;;0.60;0.60;;;;;;;;;;4996616;28;20089;-84
2024/01/08 03:40:35;;;;;;;0.60;0.60;;;;;;;;;;4995798;28;20046;-84
2024/01/08 03:43:01;;;;;;;0.50;0.50;;;;;;;;;;4979557;28;20397;-85
2024/01/08 03:45:27;;;;;;;0.52;0.52;;;;;;;;;;4978676;28;20038;-85
2024/01/08 03:47:53;;;;;;;0.60;0.60;;;;;;;;;;4979419;28;20406;-84
2024/01/08 03:50:19;;;;;;;0.60;0.60;;;;;;;;;;4996363;28;20078;-84
2024/01/08 03:52:45;;;;;;;0.60;0.60;;;;;;;;;;4978792;28;20047;-84
2024/01/08 03:55:11;;;;;;;0.50;0.50;;;;;;;;;;4979703;28;20042;-84
2024/01/08 03:57:37;;;;;;;0.60;0.60;;;;;;;;;;4998325;28;20121;-84
2024/01/08 04:00:04;;;;;;;0.60;0.60;;;;;;;;;;4982162;28;20038;-84
2024/01/08 04:02:30;;;;;;;0.50;0.50;;;;;;;;;;4982162;28;20049;-85
2024/01/08 04:04:56;;;;;;;0.60;0.60;;;;;;;;;;4982161;28;20077;-85
2024/01/08 04:07:22;;;;;;;0.60;0.60;;;;;;;;;;4998266;28;20049;-84
2024/01/08 04:09:48;;;;;;;0.60;0.60;;;;;;;;;;4979502;28;20042;-84
2024/01/08 04:12:14;;;;;;;0.60;0.60;;;;;;;;;;4962883;28;20073;-84
2024/01/08 04:14:40;;;;;;;0.70;0.70;;;;;;;;;;4979270;28;20038;-84
2024/01/08 04:17:06;;;;;;;0.60;0.60;;;;;;;;;;4978520;28;20050;-84
2024/01/08 04:19:32;;;;;;;0.60;0.60;;;;;;;;;;4963984;28;20053;-84
2024/01/08 04:21:58;;;;;;;0.60;0.60;;;;;;;;;;4981528;28;20047;-84
2024/01/08 04:24:24;;;;;;;0.50;0.50;;;;;;;;;;4981538;28;20042;-84
2024/01/08 04:26:50;;;;;;;0.60;0.60;;;;;;;;;;4981265;28;20485;-84
2024/01/08 04:29:17;;;;;;;0.60;0.60;;;;;;;;;;4997838;28;20039;-85
2024/01/08 04:31:43;;;;;;;0.60;0.60;;;;;;;;;;4998078;28;20042;-84
2024/01/08 04:34:09;;;;;;;0.60;0.60;;;;;;;;;;4977910;28;20061;-84
2024/01/08 04:36:40;;;;;;;0.60;0.60;;;;;;;;;;4961986;28;20129;-84
2024/01/08 04:39:06;;;;;;;0.60;0.60;;;;;;;;;;4962664;28;20047;-84
2024/01/08 04:41:32;;;;;;;0.60;0.60;;;;;;;;;;4978302;28;20122;-83
2024/01/08 04:43:58;;;;;;;0.50;0.50;;;;;;;;;;4964010;28;20094;-84
2024/01/08 04:46:24;;;;;;;0.57;0.57;;;;;;;;;;4978416;28;20046;-84
2024/01/08 04:48:50;;;;;;;0.60;0.60;;;;;;;;;;4962765;28;20039;-84
2024/01/08 04:51:23;;;;;;;0.52;0.52;;;;;;;;;;4979857;28;20486;-84
2024/01/08 04:53:50;;;;;;;0.60;0.60;;;;;;;;;;4962478;28;20085;-84
2024/01/08 04:56:27;;;;;;;0.60;0.60;;;;;;;;;;4978206;28;20093;-84
2024/01/08 04:58:53;;;;;;;0.60;0.60;;;;;;;;;;4977940;28;20046;-84
2024/01/08 05:01:19;;;;;;;0.50;0.50;;;;;;;;;;4979671;28;20038;-84
2024/01/08 05:03:46;;;;;;;0.60;0.60;;;;;;;;;;4983230;28;20042;-84
2024/01/08 05:06:12;;;;;;;0.60;0.60;;;;;;;;;;4997279;28;20038;-84
2024/01/08 05:08:38;;;;;;;0.60;0.60;;;;;;;;;;4982553;28;20090;-84
2024/01/08 05:11:07;;;;;;;0.52;0.52;;;;;;;;;;4978038;28;20481;-85
2024/01/08 05:13:34;;;;;;;0.60;0.60;;;;;;;;;;4978147;28;20051;-84
2024/01/08 05:16:03;;;;;;;0.60;0.60;;;;;;;;;;4977482;28;20393;-84
2024/01/08 05:18:29;;;;;;;0.50;0.50;;;;;;;;;;4964786;28;20034;-84
2024/01/08 05:20:55;;;;;;;0.60;0.60;;;;;;;;;;4986133;28;20513;-84
2024/01/08 05:23:21;;;;;;;0.60;0.60;;;;;;;;;;4974927;28;20074;-84
2024/01/08 05:25:47;;;;;;;0.57;0.57;;;;;;;;;;4980319;28;20485;-85
2024/01/08 05:28:13;;;;;;;1.35;1.25;;;;;;;;;;4979408;28;20043;-84
2024/01/08 05:30:39;;;;;;;0.50;0.50;;;;;;;;;;4976542;28;20045;-85
2024/01/08 05:33:05;;;;;;;0.50;0.50;;;;;;;;;;4984401;28;20049;-85
2024/01/08 05:35:33;;;;;;;0.60;0.60;;;;;;;;;;4961252;28;20093;-85
2024/01/08 05:38:02;;;;;;;0.50;0.50;;;;;;;;;;4984135;28;20058;-84
2024/01/08 05:40:28;;;;;;;0.50;0.50;;;;;;;;;;4974534;28;20577;-85
2024/01/08 05:42:54;;;;;;;0.50;0.50;;;;;;;;;;4977822;28;20062;-85
2024/01/08 05:45:21;;;;;;;0.60;0.60;;;;;;;;;;4984931;28;20080;-83
2024/01/08 05:47:48;;;;;;;0.50;0.50;;;;;;;;;;4993464;28;20085;-84
2024/01/08 05:50:16;;;;;;;0.57;0.57;;;;;;;;;;4980315;28;20105;-83
2024/01/08 05:52:44;;;;;;;0.60;0.60;;;;;;;;;;4996139;28;20105;-85
2024/01/08 05:55:13;;;;;;;0.60;0.60;;;;;;;;;;4980113;28;20077;-84
2024/01/08 05:57:39;;;;;;;0.60;0.60;;;;;;;;;;4979478;28;20085;-85
2024/01/08 06:00:06;;;;;;;0.60;0.60;;;;;;;;;;4976795;28;20418;-85
2024/01/08 06:02:32;;;;;;;0.60;0.60;;;;;;;;;;4975707;28;20039;-84
2024/01/08 06:04:58;;;;;;;0.60;0.60;;;;;;;;;;4994685;28;20038;-84
2024/01/08 06:07:25;;;;;;;0.57;0.57;;;;;;;;;;4976007;28;20086;-83
2024/01/08 06:09:52;;;;;;;0.60;0.60;;;;;;;;;;4987159;28;20045;-84
2024/01/08 06:12:18;;;;;;;0.50;0.50;;;;;;;;;;4976598;28;20046;-84
2024/01/08 06:14:44;;;;;;;0.60;0.60;;;;;;;;;;4976173;28;20045;-85
2024/01/08 06:17:11;;;;;;;0.60;0.60;;;;;;;;;;4976256;28;20046;-84
2024/01/08 06:19:37;;;;;;;0.50;0.50;;;;;;;;;;4968583;28;20050;-84
2024/01/08 06:22:04;;;;;;;0.50;0.50;;;;;;;;;;4960245;28;20111;-83
2024/01/08 06:24:30;;;;;;;0.60;0.60;;;;;;;;;;4960048;28;20039;-84
2024/01/08 06:26:56;;;;;;;0.60;0.60;;;;;;;;;;4972051;28;20594;-84
2024/01/08 06:29:22;;;;;;;0.60;0.60;;;;;;;;;;4960937;28;20038;-84
2024/01/08 06:31:48;;;;;;;0.60;0.60;;;;;;;;;;4976621;28;20057;-84
2024/01/08 06:34:15;;;;;;;0.55;0.55;;;;;;;;;;4975807;28;20161;-84
2024/01/08 06:36:41;;;;;;;0.50;0.50;;;;;;;;;;4968421;28;20053;-85
2024/01/08 06:39:09;;;;;;;0.60;0.60;;;;;;;;;;4975601;28;20066;-85
2024/01/08 06:41:35;;;;;;;0.52;0.52;;;;;;;;;;4976390;28;20042;-85
2024/01/08 06:44:02;;;;;;;0.60;0.60;;;;;;;;;;4972642;28;20047;-84
2024/01/08 06:46:38;;;;;;;0.60;0.60;;;;;;;;;;4966515;28;20571;-83
2024/01/08 06:49:04;;;;;;;;;;;;;;;;;;4991215;28;20035;-84
2024/01/08 06:51:30;;;;;;;0.50;0.50;;;;;;;;;;4964717;28;19918;-83
2024/01/08 06:53:56;;;;;;;0.60;0.60;;;;;;;;;;4967372;28;20039;-84
2024/01/08 06:56:21;;;;;;;0.60;0.60;;;;;;;;;;4962550;28;20043;-85
2024/01/08 06:58:47;;;;;;;0.50;0.50;;;;;;;;;;4994773;28;20049;-85
2024/01/08 07:01:16;;;;;;;0.50;0.50;;;;;;;;;;4972383;28;20035;-83
2024/01/08 07:03:42;;;;;;;0.60;0.60;;;;;;;;;;4997061;28;20038;-84
2024/01/08 07:06:08;;;;;;;0.50;0.50;;;;;;;;;;4996680;28;20058;-84
2024/01/08 07:08:34;;;;;;;0.50;0.50;;;;;;;;;;4994800;28;20030;-85
2024/01/08 07:11:00;;;;;;;0.60;0.60;;;;;;;;;;4976366;28;20069;-83
2024/01/08 07:13:26;;;;;;;0.60;0.60;;;;;;;;;;4974579;28;20050;-85
2024/01/08 07:15:52;;;;;;;0.60;0.60;;;;;;;;;;4978890;28;20046;-83
2024/01/08 07:18:18;;;;;;;0.60;0.60;;;;;;;;;;4995910;28;20638;-84
2024/01/08 07:20:44;;;;;;;0.60;0.60;;;;;;;;;;4977300;28;20034;-83
2024/01/08 07:23:12;;;;;;;0.60;0.60;;;;;;;;;;4987587;28;20069;-84
2024/01/08 07:25:39;;;;;;;0.50;0.50;;;;;;;;;;4999536;28;20046;-84
2024/01/08 07:28:09;;;;;;;0.60;0.60;;;;;;;;;;4975717;28;20050;-83
2024/01/08 07:30:35;;;;;;;0.60;0.60;;;;;;;;;;4963697;28;20085;-85
2024/01/08 07:33:02;;;;;;;0.60;0.60;;;;;;;;;;4973632;28;20042;-84
2024/01/08 07:35:28;;;;;;;0.60;0.60;;;;;;;;;;4987716;28;20031;-84
2024/01/08 07:37:57;;;;;;;0.60;0.60;;;;;;;;;;4973383;28;20049;-84
2024/01/08 07:40:24;;;;;;;0.60;0.60;;;;;;;;;;4992033;28;20175;-85
2024/01/08 07:42:51;;;;;;;0.60;0.60;;;;;;;;;;4959068;28;20035;-85
2024/01/08 07:45:17;;;;;;;0.50;0.50;;;;;;;;;;4978389;28;20445;-85
2024/01/08 07:47:43;;;;;;;0.60;0.60;;;;;;;;;;4990183;28;20057;-83
2024/01/08 07:50:09;;;;;;;0.60;0.60;;;;;;;;;;4966684;28;20126;-83
2024/01/08 07:52:38;;;;;;;0.60;0.60;;;;;;;;;;4991587;28;20082;-83
2024/01/08 07:55:05;;;;;;;0.50;0.50;;;;;;;;;;4986455;28;20076;-84
2024/01/08 07:57:31;;;;;;;0.60;0.60;;;;;;;;;;4974544;28;20109;-84
2024/01/08 07:59:57;;;;;;;0.57;0.57;;;;;;;;;;4962917;28;20069;-87
2024/01/08 08:02:24;;;;;;;0.60;0.60;;;;;;;;;;4995429;28;20042;-86
2024/01/08 08:04:52;;;;;;;0.60;0.60;;;;;;;;;;4970890;28;20046;-87
2024/01/08 08:07:19;;;;;;;0.52;0.52;;;;;;;;;;4977082;28;20034;-86
2024/01/08 08:09:45;;;;;;;0.60;0.60;;;;;;;;;;4974617;28;20046;-86
2024/01/08 08:12:12;;;;;;;0.55;0.55;;;;;;;;;;4977222;28;20137;-86
2024/01/08 08:14:38;;;;;;;0.70;0.70;;;;;;;;;;4971461;28;20054;-86
2024/01/08 08:17:04;;;;;;;0.50;0.50;;;;;;;;;;5000922;28;20382;-86
2024/01/08 08:19:30;;;;;;;0.50;0.50;;;;;;;;;;4991972;28;20039;-86
2024/01/08 08:21:57;;;;;;;0.60;0.60;;;;;;;;;;5000815;28;20034;-86
2024/01/08 08:24:23;;;;;;;0.70;0.70;;;;;;;;;;5004754;28;20209;-86
2024/01/08 08:26:50;;;;;;;1.25;1.15;;;;;;;;;;4984529;28;20038;-87
2024/01/08 08:29:16;;;;;;;0.60;0.60;;;;;;;;;;4984405;28;20053;-87
2024/01/08 08:31:42;;;;;;;0.60;0.60;;;;;;;;;;5004537;28;20041;-87
2024/01/08 08:34:09;;;;;;;0.50;0.50;;;;;;;;;;4992947;28;20085;-87
2024/01/08 08:36:41;;;;;;;0.50;0.50;;;;;;;;;;4992984;28;20040;-87
2024/01/08 08:39:07;;;;;;;0.60;0.60;;;;;;;;;;4985698;28;20047;-90
2024/01/08 08:41:36;;;;;;;0.55;0.55;;;;;;;;;;4975436;28;20516;-87
2024/01/08 08:44:02;;;;;;;0.60;0.60;;;;;;;;;;4983287;28;20601;-87
2024/01/08 08:46:29;;;;;;;0.60;0.60;;;;;;;;;;4982775;28;20034;-87
2024/01/08 08:48:57;;;;;;;0.60;0.60;;;;;;;;;;4978545;28;20069;-87
2024/01/08 08:51:23;;;;;;;0.60;0.60;;;;;;;;;;4980141;28;20042;-88
2024/01/08 08:53:49;;;;;;;0.60;0.60;;;;;;;;;;4968482;28;20054;-87
2024/01/08 08:56:15;;;;;;;0.60;0.60;;;;;;;;;;4978738;28;20038;-87
2024/01/08 08:58:41;;;;;;;0.60;0.60;;;;;;;;;;4972098;28;20038;-88
2024/01/08 09:01:07;;;;;;;0.50;0.50;;;;;;;;;;4989677;28;20501;-87
2024/01/08 09:03:33;;;;;;;0.50;0.50;;;;;;;;;;4982410;28;20042;-87
2024/01/08 09:05:59;;;;;;;0.60;0.60;;;;;;;;;;4982968;28;20747;-88
2024/01/08 09:08:28;;;;;;;0.60;0.60;;;;;;;;;;4971395;28;20042;-88
2024/01/08 09:10:54;;;;;;;0.60;0.60;;;;;;;;;;4983828;28;20046;-88
2024/01/08 09:13:20;;;;;;;0.50;0.50;;;;;;;;;;4995289;28;20077;-87
2024/01/08 09:15:46;;;;;;;0.50;0.50;;;;;;;;;;4981322;28;20086;-87
2024/01/08 09:18:12;;;;;;;0.50;0.50;;;;;;;;;;4982276;28;20038;-86
2024/01/08 09:20:38;;;;;;;0.60;0.60;;;;;;;;;;4983348;28;20046;-87
2024/01/08 09:23:04;;;;;;;0.57;0.57;;;;;;;;;;4967565;28;20089;-88
2024/01/08 09:25:31;;;;;;;0.50;0.50;;;;;;;;;;4980869;28;20043;-88
2024/01/08 09:27:57;;;;;;;0.60;0.60;;;;;;;;;;4984643;28;20039;-87
2024/01/08 09:30:23;;;;;;;0.60;0.60;;;;;;;;;;4988669;28;20045;-88
2024/01/08 09:32:50;;;;;;;0.60;0.60;;;;;;;;;;4983718;28;20038;-87
2024/01/08 09:35:16;;;;;;;0.50;0.50;;;;;;;;;;4983063;28;20101;-88
2024/01/08 09:37:42;;;;;;;0.50;0.50;;;;;;;;;;4993398;28;20042;-85
2024/01/08 09:40:10;;;;;;;0.50;0.50;;;;;;;;;;4965188;28;20047;-85
2024/01/08 09:42:38;;;;;;;0.50;0.50;;;;;;;;;;4979159;28;20096;-84
2024/01/08 09:45:10;;;;;;;0.50;0.50;;;;;;;;;;4976351;28;20042;-84
2024/01/08 09:47:36;;;;;;;0.60;0.60;;;;;;;;;;4977142;28;20046;-85
2024/01/08 09:50:03;;;;;;;0.50;0.50;;;;;;;;;;4976361;28;20035;-85
2024/01/08 09:52:30;;;;;;;0.60;0.60;;;;;;;;;;4968287;28;20106;-88
2024/01/08 09:54:56;;;;;;;0.70;0.70;;;;;;;;;;4963808;28;20100;-84
2024/01/08 09:57:25;;;;;;;0.60;0.60;;;;;;;;;;4990102;28;20128;-83
2024/01/08 09:59:51;;;;;;;0.60;0.60;;;;;;;;;;4973092;28;20532;-84
2024/01/08 10:02:17;;;;;;;0.60;0.60;;;;;;;;;;4975245;28;20034;-84
2024/01/08 10:04:43;;;;;;;0.60;0.60;;;;;;;;;;4972522;28;20062;-83
2024/01/08 10:07:12;;;;;;;0.60;0.60;;;;;;;;;;4976650;28;20696;-84
2024/01/08 10:09:38;;;;;;;0.50;0.50;;;;;;;;;;4985006;28;20086;-83
2024/01/08 10:12:09;;;;;;;0.52;0.52;;;;;;;;;;4989019;28;20125;-84
2024/01/08 10:14:35;;;;;;;0.60;0.60;;;;;;;;;;4977940;28;20065;-84
2024/01/08 10:17:01;;;;;;;0.50;0.50;;;;;;;;;;4974237;28;20038;-85
2024/01/08 10:19:28;;;;;;;0.55;0.55;;;;;;;;;;4961622;28;20541;-84
2024/01/08 10:22:07;;;;;;;0.50;0.50;;;;;;;;;;4976351;28;20066;-85
2024/01/08 10:24:33;;;;;;;0.60;0.60;;;;;;;;;;4992484;28;20035;-83
2024/01/08 10:26:59;;;;;;;0.50;0.50;;;;;;;;;;4969286;28;20046;-85
2024/01/08 10:29:25;;;;;;;0.52;0.52;;;;;;;;;;4977727;28;20074;-88
2024/01/08 10:31:53;;;;;;;0.50;0.50;;;;;;;;;;5000957;28;20050;-89
2024/01/08 10:34:19;;;;;;;0.60;0.60;;;;;;;;;;4997532;28;20570;-84
2024/01/08 10:36:45;;;;;;;0.60;0.60;;;;;;;;;;4988747;28;20063;-85
2024/01/08 10:39:12;;;;;;;0.60;0.60;;;;;;;;;;4986945;28;20046;-85
2024/01/08 10:41:38;;;;;;;0.57;0.57;;;;;;;;;;4996251;28;20042;-85
2024/01/08 10:44:04;;;;;;;0.50;0.50;;;;;;;;;;4976816;28;20524;-86
2024/01/08 10:46:35;;;;;;;0.60;0.60;;;;;;;;;;4974833;28;20034;-85
2024/01/08 10:49:02;;;;;;;0.60;0.60;;;;;;;;;;4977075;28;20453;-85
2024/01/08 10:51:28;;;;;;;0.55;0.55;;;;;;;;;;4984919;28;20050;-85
2024/01/08 10:53:54;;;;;;;0.60;0.60;;;;;;;;;;4961439;28;20035;-85
2024/01/08 10:56:24;;;;;;;0.50;0.50;;;;;;;;;;4983799;28;20042;-84
2024/01/08 10:58:51;;;;;;;0.57;0.57;;;;;;;;;;4991771;28;20104;-85
2024/01/08 11:01:17;;;;;;;0.50;0.50;;;;;;;;;;4966947;28;20121;-85
2024/01/08 11:03:44;;;;;;;0.60;0.60;;;;;;;;;;4976606;28;20050;-85
2024/01/08 11:06:11;;;;;;;0.50;0.50;;;;;;;;;;4965617;28;20039;-83
2024/01/08 11:08:39;;;;;;;0.60;0.60;;;;;;;;;;4977982;28;20050;-85
2024/01/08 11:11:07;;;;;;;0.55;0.55;;;;;;;;;;4975595;28;20118;-86
2024/01/08 11:13:33;;;;;;;0.50;0.50;;;;;;;;;;4984677;28;20038;-84
2024/01/08 11:16:03;;;;;;;0.60;0.60;;;;;;;;;;4976027;28;20057;-85
2024/01/08 11:18:29;;;;;;;0.57;0.57;;;;;;;;;;4977021;28;20045;-85
2024/01/08 11:20:56;;;;;;;0.60;0.60;;;;;;;;;;4978562;28;20042;-86
2024/01/08 11:23:42;;;;;;;0.57;0.57;;;;;;;;;;4967439;28;20038;-86
2024/01/08 11:26:08;;;;;;;;;;;;;;;;;;4973386;28;20039;-84
2024/01/08 11:28:36;;;;;;;0.60;0.60;;;;;;;;;;4965624;28;20347;-85
2024/01/08 11:31:10;;;;;;;0.50;0.50;;;;;;;;;;4981405;28;20046;-86
2024/01/08 11:33:56;;;;;;;0.57;0.57;;;;;;;;;;4976265;28;20050;-85
2024/01/08 11:36:30;;;;;;;0.50;0.50;;;;;;;;;;4990911;28;20042;-84
2024/01/08 11:39:13;;;;;;;0.60;0.60;;;;;;;;;;4987381;28;20374;-84
2024/01/08 11:41:39;;;;;;;0.60;0.60;;;;;;;;;;4980610;28;20097;-83
2024/01/08 11:44:20;;;;;;;0.60;0.60;;;;;;;;;;4977900;28;20041;-85
2024/01/08 11:47:03;;;;;;;0.60;0.60;;;;;;;;;;4994089;28;20042;-85
2024/01/08 11:49:29;;;;;;;0.73;0.73;;;;;;;;;;4995073;28;20057;-85
2024/01/08 11:52:00;;;;;;;0.60;0.60;;;;;;;;;;4995403;28;20050;-85
2024/01/08 11:54:29;;;;;;;0.50;0.50;;;;;;;;;;4984607;28;20049;-84
2024/01/08 11:56:55;;;;;;;0.50;0.50;;;;;;;;;;4962637;28;20148;-84
2024/01/08 11:59:31;;;;;;;0.60;0.60;;;;;;;;;;4963935;28;20147;-86
2024/01/08 12:02:08;;;;;;;0.52;0.52;;;;;;;;;;4988814;28;20038;-85
2024/01/08 12:04:35;;;;;;;0.60;0.60;;;;;;;;;;4981086;28;20132;-84
2024/01/08 12:07:04;;;;;;;0.50;0.50;;;;;;;;;;4982068;28;20034;-85
2024/01/08 12:09:31;;;;;;;0.55;0.55;;;;;;;;;;4981584;28;20505;-84
2024/01/08 12:12:08;;;;;;;0.60;0.60;;;;;;;;;;4976704;28;20101;-85
2024/01/08 12:14:34;;;;;;;0.57;0.57;;;;;;;;;;4963609;28;20556;-85
2024/01/08 12:17:01;;;;;;;0.70;0.70;;;;;;;;;;4972027;28;20628;-85
2024/01/08 12:19:47;;;;;;;0.60;0.60;;;;;;;;;;4982137;28;20122;-84
2024/01/08 12:22:17;;;;;;;0.60;0.60;;;;;;;;;;4984103;28;20101;-85
2024/01/08 12:24:45;;;;;;;0.70;0.70;;;;;;;;;;4992576;28;20042;-85
2024/01/08 12:27:12;;;;;;;0.60;0.60;;;;;;;;;;4971133;28;20061;-84
2024/01/08 12:29:41;;;;;;;0.70;0.70;;;;;;;;;;4968988;28;20042;-84
2024/01/08 12:32:09;;;;;;;0.50;0.50;;;;;;;;;;4976740;28;20066;-85
2024/01/08 12:34:42;;;;;;;0.60;0.60;;;;;;;;;;4983190;28;20076;-84
2024/01/08 12:37:09;;;;;;;0.55;0.55;;;;;;;;;;4974782;28;20106;-84
2024/01/08 12:39:35;;;;;;;0.60;0.60;;;;;;;;;;4966116;28;20051;-84
2024/01/08 12:42:04;;;;;;;0.60;0.60;;;;;;;;;;4974144;28;20045;-84
2024/01/08 12:44:31;;;;;;;0.50;0.50;;;;;;;;;;4993608;28;20038;-85
2024/01/08 12:46:58;;;;;;;0.60;0.60;;;;;;;;;;4986131;28;20081;-85
2024/01/08 12:49:24;;;;;;;0.50;0.50;;;;;;;;;;5010175;28;20102;-85
2024/01/08 12:51:54;;;;;;;0.60;0.60;;;;;;;;;;4977218;28;20529;-85
2024/01/08 12:54:20;;;;;;;0.60;0.60;;;;;;;;;;4980174;28;20047;-84
2024/01/08 12:56:48;;;;;;;0.50;0.50;;;;;;;;;;4975683;28;20494;-85
2024/01/08 12:59:15;;;;;;;0.50;0.50;;;;;;;;;;4976926;28;20049;-84
2024/01/08 13:01:42;;;;;;;0.55;0.55;;;;;;;;;;4976970;28;20042;-85
2024/01/08 13:04:17;;;;;;;0.60;0.60;;;;;;;;;;4970701;28;20033;-84
2024/01/08 13:06:44;;;;;;;0.50;0.50;;;;;;;;;;4974586;28;20155;-83
2024/01/08 13:09:11;;;;;;;0.88;0.88;;;;;;;;;;4985936;28;20569;-85
2024/01/08 13:11:40;;;;;;;0.52;0.52;;;;;;;;;;4977591;28;20038;-86
2024/01/08 13:14:17;;;;;;;0.50;0.50;;;;;;;;;;4967210;28;20101;-84
2024/01/08 13:16:45;;;;;;;0.50;0.50;;;;;;;;;;4975168;28;20035;-85
2024/01/08 13:19:11;;;;;;;0.60;0.60;;;;;;;;;;4981331;28;20042;-85
2024/01/08 13:21:41;;;;;;;0.50;0.50;;;;;;;;;;4966734;28;20117;-85
2024/01/08 13:24:17;;;;;;;0.70;0.70;;;;;;;;;;4984231;28;20033;-85
2024/01/08 13:26:52;;;;;;;0.55;0.55;;;;;;;;;;4979743;28;20034;-83
2024/01/08 13:29:20;;;;;;;1.63;1.52;;;;;;;;;;4979076;28;20387;-84
2024/01/08 13:31:47;;;;;;;0.52;0.52;;;;;;;;;;4995920;28;20494;-84
2024/01/08 13:34:13;;;;;;;0.60;0.60;;;;;;;;;;4972112;28;20043;-84
2024/01/08 13:36:41;;;;;;;0.50;0.50;;;;;;;;;;4988014;28;20046;-85
2024/01/08 13:39:10;;;;;;;0.60;0.60;;;;;;;;;;4980779;28;20070;-85
2024/01/08 13:41:38;;;;;;;0.60;0.60;;;;;;;;;;5004933;28;20034;-84
2024/01/08 13:44:04;;;;;;;0.55;0.55;;;;;;;;;;4963256;28;20049;-84
2024/01/08 13:46:30;;;;;;;0.50;0.50;;;;;;;;;;4970547;28;20121;-85
2024/01/08 13:48:57;;;;;;;0.65;0.65;;;;;;;;;;4996654;28;20068;-85
2024/01/08 13:51:24;;;;;;;0.50;0.50;;;;;;;;;;4975979;28;20066;-85
2024/01/08 13:53:50;;;;;;;0.50;0.50;;;;;;;;;;4990338;28;20462;-85
2024/01/08 13:56:17;;;;;;;0.50;0.50;;;;;;;;;;4978139;28;20077;-85
2024/01/08 13:58:43;;;;;;;0.68;0.68;;;;;;;;;;4981563;28;20038;-84
2024/01/08 14:01:09;;;;;;;0.50;0.50;;;;;;;;;;4979273;28;20129;-85
2024/01/08 14:03:38;;;;;;;0.60;0.60;;;;;;;;;;4969243;28;20553;-85
2024/01/08 14:06:08;;;;;;;0.60;0.60;;;;;;;;;;4992739;28;20039;-84
2024/01/08 14:08:34;;;;;;;0.50;0.50;;;;;;;;;;4976619;28;20045;-85
2024/01/08 14:11:01;;;;;;;0.60;0.60;;;;;;;;;;4995155;28;20055;-84
2024/01/08 14:13:27;;;;;;;0.60;0.60;;;;;;;;;;4978689;28;20588;-84
2024/01/08 14:15:53;;;;;;;0.60;0.60;;;;;;;;;;4983359;28;20077;-86
2024/01/08 14:18:19;;;;;;;0.60;0.60;;;;;;;;;;4979829;28;20110;-85
2024/01/08 14:20:46;;;;;;;0.55;0.55;;;;;;;;;;4985894;28;20046;-85
2024/01/08 14:23:11;;;;;;;0.50;0.50;;;;;;;;;;4978456;28;20094;-86
2024/01/08 14:25:38;;;;;;;0.60;0.60;;;;;;;;;;5002554;28;20097;-85
2024/01/08 14:28:04;;;;;;;0.63;0.63;;;;;;;;;;4985807;28;20387;-85
2024/01/08 14:30:32;;;;;;;0.60;0.60;;;;;;;;;;4965400;28;20050;-85
2024/01/08 14:32:59;;;;;;;0.60;0.60;;;;;;;;;;4980625;28;20023;-86
2024/01/08 14:35:25;;;;;;;0.60;0.60;;;;;;;;;;4986702;28;20041;-84
2024/01/08 14:37:56;;;;;;;0.60;0.60;;;;;;;;;;4975481;28;20058;-85
2024/01/08 14:40:28;;;;;;;0.60;0.60;;;;;;;;;;4972542;28;20039;-85
2024/01/08 14:42:58;;;;;;;1.52;1.42;;;;;;;;;;4981161;28;20066;-85